createdAt,value
2018-09-30T00:04:18.769Z," 8.31"
2018-09-30T00:09:14.000Z," 8.26"
2018-09-30T00:14:10.736Z," 8.31"
2018-09-30T00:19:06.269Z," 7.98"
2018-09-30T00:24:02.037Z," 8.13"
2018-09-30T00:28:57.656Z," 8.12"
2018-09-30T00:33:54.560Z," 8.15"
2018-09-30T00:38:50.652Z," 8.16"
2018-09-30T00:43:46.155Z," 8.10"
2018-09-30T00:48:42.601Z," 7.80"
2018-09-30T00:53:40.131Z," 7.67"
2018-09-30T00:58:35.328Z," 7.50"
2018-09-30T01:03:32.236Z," 7.40"
2018-09-30T01:08:27.531Z," 7.48"
2018-09-30T01:13:23.577Z," 7.69"
2018-09-30T01:18:19.324Z," 7.80"
2018-09-30T01:23:16.148Z," 7.80"
2018-09-30T01:28:12.626Z," 7.98"
2018-09-30T01:33:08.002Z," 8.00"
2018-09-30T01:38:03.466Z," 7.91"
2018-09-30T01:43:00.123Z," 7.93"
2018-09-30T01:47:55.576Z," 7.77"
2018-09-30T01:52:51.375Z," 7.76"
2018-09-30T01:57:47.653Z," 7.66"
2018-09-30T02:02:43.831Z," 7.60"
2018-09-30T02:07:39.418Z," 7.50"
2018-09-30T02:12:36.116Z," 7.13"
2018-09-30T02:17:31.428Z," 6.99"
2018-09-30T02:22:27.274Z," 7.00"
2018-09-30T02:27:23.709Z," 6.79"
2018-09-30T02:32:19.403Z," 6.79"
2018-09-30T02:37:15.935Z," 6.64"
2018-09-30T02:42:11.317Z," 6.54"
2018-09-30T02:47:08.011Z," 6.63"
2018-09-30T02:52:04.081Z," 6.45"
2018-09-30T02:56:59.856Z," 6.42"
2018-09-30T03:01:55.474Z," 6.33"
2018-09-30T03:06:51.138Z," 6.27"
2018-09-30T03:11:46.817Z," 6.16"
2018-09-30T03:16:43.290Z," 6.20"
2018-09-30T03:21:40.221Z," 6.14"
2018-09-30T03:26:35.832Z," 6.20"
2018-09-30T03:31:32.495Z," 6.12"
2018-09-30T03:36:27.808Z," 5.98"
2018-09-30T03:41:23.673Z," 5.89"
2018-09-30T03:46:20.280Z," 5.98"
2018-09-30T03:51:16.774Z," 5.79"
2018-09-30T03:56:12.188Z," 5.79"
2018-09-30T04:01:09.298Z," 5.73"
2018-09-30T04:06:04.657Z," 5.65"
2018-09-30T04:11:00.508Z," 5.56"
2018-09-30T04:15:56.833Z," 5.61"
2018-09-30T04:20:53.183Z," 5.48"
2018-09-30T04:25:49.718Z," 5.62"
2018-09-30T04:30:45.547Z," 5.51"
2018-09-30T04:35:41.233Z," 5.46"
2018-09-30T04:40:36.637Z," 5.30"
2018-09-30T04:45:33.281Z," 5.35"
2018-09-30T04:50:28.805Z," 5.30"
2018-09-30T04:55:25.501Z," 5.26"
2018-09-30T05:00:21.735Z," 5.21"
2018-09-30T05:05:17.700Z," 5.20"
2018-09-30T05:10:13.429Z," 5.33"
2018-09-30T05:15:09.880Z," 5.57"
2018-09-30T05:20:05.329Z," 5.86"
2018-09-30T05:25:02.164Z," 5.79"
2018-09-30T05:29:58.628Z," 5.79"
2018-09-30T05:34:53.885Z," 5.73"
2018-09-30T05:39:49.519Z," 5.72"
2018-09-30T05:44:45.271Z," 5.65"
2018-09-30T05:49:40.753Z," 5.73"
2018-09-30T05:54:37.860Z," 5.83"
2018-09-30T05:59:33.261Z," 5.71"
2018-09-30T06:04:28.991Z," 5.59"
2018-09-30T06:09:24.581Z," 5.62"
2018-09-30T06:14:21.317Z," 5.84"
2018-09-30T06:19:17.242Z," 5.94"
2018-09-30T06:24:14.306Z," 6.19"
2018-09-30T06:29:09.798Z," 6.24"
2018-09-30T06:34:07.415Z," 6.17"
2018-09-30T06:39:02.829Z," 6.16"
2018-09-30T06:43:59.639Z," 6.30"
2018-09-30T06:48:57.040Z," 6.57"
2018-09-30T06:53:53.821Z," 6.81"
2018-09-30T06:58:49.379Z," 7.06"
2018-09-30T07:03:46.284Z," 7.18"
2018-09-30T07:08:42.920Z," 7.23"
2018-09-30T07:13:39.262Z," 7.32"
2018-09-30T07:18:35.046Z," 7.38"
2018-09-30T07:23:30.710Z," 7.58"
2018-09-30T07:28:26.413Z," 7.79"
2018-09-30T07:33:22.189Z," 7.93"
2018-09-30T07:38:18.070Z," 8.08"
2018-09-30T07:43:15.245Z," 8.18"
2018-09-30T07:48:12.160Z," 8.31"
2018-09-30T07:53:08.713Z," 8.69"
2018-09-30T07:58:04.511Z," 8.88"
2018-09-30T08:03:00.281Z," 9.21"
2018-09-30T08:07:56.219Z," 9.41"
2018-09-30T08:12:52.992Z," 9.56"
2018-09-30T08:17:49.595Z," 9.80"
2018-09-30T08:22:46.631Z,10.19
2018-09-30T08:27:43.233Z,10.26
2018-09-30T08:32:38.705Z,10.48
2018-09-30T08:37:35.620Z,10.57
2018-09-30T08:42:31.101Z,10.72
2018-09-30T08:47:27.586Z,10.90
2018-09-30T08:52:23.482Z,11.23
2018-09-30T08:57:19.556Z,11.45
2018-09-30T09:02:15.791Z,11.57
2018-09-30T09:07:11.769Z,11.69
2018-09-30T09:12:08.996Z,11.78
2018-09-30T09:17:05.689Z,12.13
2018-09-30T09:22:01.974Z,12.28
2018-09-30T09:26:58.043Z,12.40
2018-09-30T09:31:54.002Z,12.55
2018-09-30T09:36:50.144Z,12.58
2018-09-30T09:41:47.209Z,12.68
2018-09-30T09:46:43.668Z,12.78
2018-09-30T09:51:39.347Z,13.05
2018-09-30T09:56:35.517Z,13.30
2018-09-30T10:01:31.464Z,13.44
2018-09-30T10:06:28.622Z,13.62
2018-09-30T10:11:25.356Z,13.72
2018-09-30T10:16:21.905Z,13.81
2018-09-30T10:21:17.947Z,13.85
2018-09-30T10:26:15.364Z,14.08
2018-09-30T10:31:12.165Z,14.10
2018-09-30T10:36:08.344Z,14.32
2018-09-30T10:41:03.931Z,14.54
2018-09-30T10:45:59.943Z,14.85
2018-09-30T10:50:57.304Z,15.29
2018-09-30T10:55:54.029Z,16.09
2018-09-30T11:00:52.359Z,16.97
2018-09-30T11:05:49.133Z,17.49
2018-09-30T11:10:46.966Z,18.26
2018-09-30T11:15:43.932Z,18.77
2018-09-30T11:20:40.709Z,17.87
2018-09-30T11:25:36.855Z,18.18
2018-09-30T11:30:34.288Z,18.77
2018-09-30T11:35:30.732Z,18.41
2018-09-30T11:40:27.519Z,17.95
2018-09-30T11:45:22.609Z,17.70
2018-09-30T11:50:17.945Z,17.79
2018-09-30T11:55:13.452Z,17.36
2018-09-30T12:00:09.006Z,17.30
2018-09-30T12:05:07.181Z,17.57
2018-09-30T12:10:02.537Z,17.86
2018-09-30T12:14:59.626Z,18.26
2018-09-30T12:19:55.738Z,18.20
2018-09-30T12:24:52.779Z,18.04
2018-09-30T12:29:47.905Z,17.44
2018-09-30T12:34:43.625Z,17.39
2018-09-30T12:39:40.046Z,17.12
2018-09-30T12:44:35.419Z,17.26
2018-09-30T12:49:31.668Z,17.29
2018-09-30T12:54:27.587Z,17.42
2018-09-30T12:59:23.752Z,18.08
2018-09-30T13:04:20.238Z,18.29
2018-09-30T13:09:16.105Z,18.08
2018-09-30T13:14:11.894Z,18.04
2018-09-30T13:19:08.593Z,17.95
2018-09-30T13:24:04.294Z,18.00
2018-09-30T13:29:00.689Z,17.95
2018-09-30T13:33:56.081Z,17.95
2018-09-30T13:38:53.217Z,17.98
2018-09-30T13:43:48.716Z,17.98
2018-09-30T13:48:45.833Z,17.78
2018-09-30T13:53:41.301Z,17.64
2018-09-30T13:58:37.975Z,17.41
2018-09-30T14:03:33.452Z,17.23
2018-09-30T14:08:28.970Z,17.30
2018-09-30T14:13:25.093Z,17.19
2018-09-30T14:18:22.316Z,17.12
2018-09-30T14:23:17.946Z,17.02
2018-09-30T14:28:13.855Z,17.04
2018-09-30T14:33:10.054Z,16.94
2018-09-30T14:38:07.009Z,16.90
2018-09-30T14:43:04.296Z,16.78
2018-09-30T14:48:00.126Z,16.79
2018-09-30T14:52:55.906Z,16.75
2018-09-30T14:57:52.849Z,16.64
2018-09-30T15:02:49.355Z,16.75
2018-09-30T15:07:45.972Z,16.60
2018-09-30T15:12:42.446Z,16.61
2018-09-30T15:17:37.860Z,16.51
2018-09-30T15:22:34.575Z,16.47
2018-09-30T15:27:30.320Z,16.31
2018-09-30T15:32:27.738Z,16.23
2018-09-30T15:37:23.303Z,16.13
2018-09-30T15:42:19.197Z,15.98
2018-09-30T15:47:14.922Z,15.94
2018-09-30T15:52:11.550Z,15.90
2018-09-30T15:57:07.006Z,15.72
2018-09-30T16:02:02.935Z,15.68
2018-09-30T16:06:58.844Z,15.59
2018-09-30T16:11:54.574Z,15.52
2018-09-30T16:16:50.294Z,15.33
2018-09-30T16:21:45.943Z,15.36
2018-09-30T16:26:43.554Z,15.29
2018-09-30T16:31:39.953Z,15.28
2018-09-30T16:36:35.568Z,15.19
2018-09-30T16:41:32.283Z,15.21
2018-09-30T16:46:29.071Z,15.15
2018-09-30T16:51:25.554Z,15.09
2018-09-30T16:56:20.934Z,15.06
2018-09-30T17:01:16.824Z,14.97
2018-09-30T17:06:12.228Z,14.79
2018-09-30T17:11:08.497Z,14.84
2018-09-30T17:16:04.235Z,14.82
2018-09-30T17:21:00.117Z,14.65
2018-09-30T17:25:55.937Z,14.66
2018-09-30T17:30:51.804Z,14.54
2018-09-30T17:35:48.805Z,14.54
2018-09-30T17:40:43.990Z,14.54
2018-09-30T17:45:39.860Z,14.53
2018-09-30T17:50:35.689Z,14.41
2018-09-30T17:55:31.821Z,14.29
2018-09-30T18:00:28.576Z,14.29
2018-09-30T18:05:24.318Z,14.18
2018-09-30T18:10:20.864Z,14.12
2018-09-30T18:15:16.342Z,14.08
2018-09-30T18:20:11.833Z,14.04
2018-09-30T18:25:08.625Z,14.00
2018-09-30T18:30:04.899Z,13.90
2018-09-30T18:35:01.733Z,13.92
2018-09-30T18:39:58.832Z,13.87
2018-09-30T18:44:54.361Z,13.79
2018-09-30T18:49:50.652Z,13.87
2018-09-30T18:54:46.363Z,13.96
2018-09-30T18:59:42.505Z,14.03
2018-09-30T19:04:38.377Z,13.99
2018-09-30T19:09:35.211Z,13.92
2018-09-30T19:14:30.609Z,13.90
2018-09-30T19:19:27.822Z,13.95
2018-09-30T19:24:24.130Z,13.96
2018-09-30T19:29:19.671Z,13.81
2018-09-30T19:34:15.488Z,13.81
2018-09-30T19:39:11.598Z,13.81
2018-09-30T19:44:07.540Z,13.70
2018-09-30T19:49:03.237Z,13.71
2018-09-30T19:53:59.136Z,13.60
2018-09-30T19:58:54.952Z,13.57
2018-09-30T20:03:50.765Z,13.53
2018-09-30T20:08:46.599Z,13.57
2018-09-30T20:13:42.207Z,13.60
2018-09-30T20:18:38.388Z,13.53
2018-09-30T20:23:34.261Z,13.67
2018-09-30T20:28:30.588Z,13.65
2018-09-30T20:33:27.468Z,13.79
2018-09-30T20:38:23.501Z,13.71
2018-09-30T20:43:19.239Z,13.63
2018-09-30T20:48:14.989Z,13.59
2018-09-30T20:53:10.840Z,13.47
2018-09-30T20:58:07.542Z,13.47
2018-09-30T21:03:03.842Z,13.50
2018-09-30T21:07:59.671Z,13.37
2018-09-30T21:12:55.893Z,13.37
2018-09-30T21:17:51.673Z,13.25
2018-09-30T21:22:48.100Z,13.19
2018-09-30T21:27:44.531Z,13.27
2018-09-30T21:32:39.864Z,13.22
2018-09-30T21:37:35.497Z,13.19
2018-09-30T21:42:31.966Z,13.20
2018-09-30T21:47:27.813Z,13.05
2018-09-30T21:52:23.579Z,13.04
2018-09-30T21:57:19.275Z,12.93
2018-09-30T22:02:15.035Z,12.72
2018-09-30T22:07:12.147Z,12.75
2018-09-30T22:12:08.587Z,12.62
2018-09-30T22:17:04.699Z,12.57
2018-09-30T22:22:01.576Z,12.54
2018-09-30T22:26:57.235Z,12.45
2018-09-30T22:31:53.171Z,12.46
2018-09-30T22:36:50.069Z,12.46
2018-09-30T22:41:46.368Z,12.54
2018-09-30T22:46:43.012Z,12.47
2018-09-30T22:51:38.484Z,12.39
2018-09-30T22:56:35.763Z,12.40
2018-09-30T23:01:31.532Z,12.46
2018-09-30T23:06:27.299Z,12.47
2018-09-30T23:11:23.116Z,12.49
2018-09-30T23:16:19.177Z,12.45
2018-09-30T23:21:15.160Z,12.43
2018-09-30T23:26:11.099Z,12.37
2018-09-30T23:31:07.163Z,12.28
2018-09-30T23:36:02.744Z,12.31
2018-09-30T23:40:58.846Z,12.28
2018-09-30T23:45:55.660Z,12.36
2018-09-30T23:50:52.019Z,12.28
2018-09-30T23:55:48.160Z,12.40
